createdAt,value
2023-02-11T00:00:15.947Z,-0.19
2023-02-11T00:02:42.592Z,-0.15
2023-02-11T00:05:09.208Z,-0.14
2023-02-11T00:07:36.228Z,-0.05
2023-02-11T00:10:04.290Z,-0.04
2023-02-11T00:12:31.056Z,-0.03
2023-02-11T00:14:57.562Z,-0.06
2023-02-11T00:17:24.086Z,-0.02
2023-02-11T00:19:51.718Z,0.01
2023-02-11T00:22:18.712Z,0.04
2023-02-11T00:24:45.589Z,0.06
2023-02-11T00:27:12.216Z,0.04
2023-02-11T00:29:39.097Z,0.02
2023-02-11T00:32:06.249Z,0.06
2023-02-11T00:34:33.479Z,0.07
2023-02-11T00:37:00.159Z,0.06
2023-02-11T00:39:26.787Z,0.07
2023-02-11T00:41:53.267Z,0.05
2023-02-11T00:44:19.758Z,0.06
2023-02-11T00:46:46.315Z,0.06
2023-02-11T00:49:13.059Z,0.09
2023-02-11T00:51:39.782Z,0.09
2023-02-11T00:54:06.474Z,0.08
2023-02-11T00:56:33.206Z,0.06
2023-02-11T00:58:59.779Z,0.07
2023-02-11T01:01:26.874Z,0.07
2023-02-11T01:03:53.423Z,0.04
2023-02-11T01:06:19.953Z,0.02
2023-02-11T01:08:46.554Z,0.01
2023-02-11T01:11:16.693Z,-0.07
2023-02-11T01:13:43.300Z,-0.10
2023-02-11T01:18:44.510Z,-0.21
2023-02-11T01:21:12.074Z,-0.19
2023-02-11T01:23:38.648Z,-0.28
2023-02-11T01:26:05.636Z,-0.29
2023-02-11T01:28:33.278Z,-0.29
2023-02-11T01:31:01.497Z,-0.27
2023-02-11T01:33:28.772Z,-0.29
2023-02-11T01:35:55.425Z,-0.26
2023-02-11T01:38:25.362Z,-0.22
2023-02-11T01:40:58.436Z,-0.20
2023-02-11T01:43:26.459Z,-0.23
2023-02-11T01:46:02.887Z,-0.22
2023-02-11T01:48:40.729Z,-0.18
2023-02-11T01:51:13.416Z,-0.11
2023-02-11T01:53:59.393Z,-0.07
2023-02-11T01:56:46.253Z,-0.04
2023-02-11T01:59:22.622Z,-0.02
2023-02-11T02:01:57.184Z,0.05
2023-02-11T02:04:31.571Z,0.05
2023-02-11T02:07:11.115Z,0.04
2023-02-11T02:09:45.643Z,0.09
2023-02-11T02:12:12.190Z,0.07
2023-02-11T02:14:40.643Z,0.11
2023-02-11T02:17:20.315Z,0.10
2023-02-11T02:20:10.787Z,0.16
2023-02-11T02:22:44.654Z,0.15
2023-02-11T02:25:32.584Z,0.15
2023-02-11T02:28:36.919Z,0.19
2023-02-11T02:31:28.257Z,0.15
2023-02-11T02:34:06.715Z,0.15
2023-02-11T02:36:59.246Z,0.24
2023-02-11T02:39:31.779Z,0.27
2023-02-11T02:41:58.590Z,0.28
2023-02-11T02:44:25.536Z,0.32
2023-02-11T02:46:52.305Z,0.34
2023-02-11T02:49:18.801Z,0.35
2023-02-11T02:52:13.380Z,0.36
2023-02-11T02:55:01.200Z,0.34
2023-02-11T02:57:36.414Z,0.36
2023-02-11T03:00:21.408Z,0.34
2023-02-11T03:02:53.731Z,0.36
2023-02-11T03:05:32.194Z,0.31
2023-02-11T03:08:05.588Z,0.32
2023-02-11T03:10:37.894Z,0.28
2023-02-11T03:13:06.307Z,0.32
2023-02-11T03:15:37.681Z,0.33
2023-02-11T03:18:06.803Z,0.33
2023-02-11T03:20:37.169Z,0.32
2023-02-11T03:23:15.134Z,0.36
2023-02-11T03:25:48.758Z,0.36
2023-02-11T03:28:30.228Z,0.40
2023-02-11T03:31:10.612Z,0.36
2023-02-11T03:34:00.073Z,0.46
2023-02-11T03:36:46.091Z,0.47
2023-02-11T03:39:18.004Z,0.47
2023-02-11T03:41:47.510Z,0.50
2023-02-11T03:44:16.825Z,0.54
2023-02-11T03:46:47.762Z,0.54
2023-02-11T03:49:19.031Z,0.56
2023-02-11T03:51:47.328Z,0.56
2023-02-11T03:54:18.741Z,0.61
2023-02-11T03:56:52.452Z,0.59
2023-02-11T03:59:19.136Z,0.64
2023-02-11T04:01:45.753Z,0.63
2023-02-11T04:04:13.044Z,0.64
2023-02-11T04:06:39.743Z,0.61
2023-02-11T04:09:06.861Z,0.64
2023-02-11T04:11:33.379Z,0.59
2023-02-11T04:13:59.879Z,0.54
2023-02-11T04:16:27.034Z,0.55
2023-02-11T04:18:53.583Z,0.54
2023-02-11T04:21:20.106Z,0.49
2023-02-11T04:23:46.598Z,0.49
2023-02-11T04:26:13.171Z,0.48
2023-02-11T04:28:39.807Z,0.45
2023-02-11T04:31:06.408Z,0.45
2023-02-11T04:33:33.074Z,0.41
2023-02-11T04:35:59.557Z,0.39
2023-02-11T04:38:26.245Z,0.33
2023-02-11T04:40:52.814Z,0.31
2023-02-11T04:43:19.340Z,0.32
2023-02-11T04:45:45.924Z,0.25
2023-02-11T04:48:12.416Z,0.25
2023-02-11T04:50:38.940Z,0.22
2023-02-11T04:53:08.164Z,0.23
2023-02-11T04:55:34.798Z,0.21
2023-02-11T04:58:01.274Z,0.16
2023-02-11T05:00:27.784Z,0.24
2023-02-11T05:02:54.283Z,0.23
2023-02-11T05:05:20.754Z,0.22
2023-02-11T05:07:48.421Z,0.24
2023-02-11T05:10:15.248Z,0.23
2023-02-11T05:12:41.787Z,0.28
2023-02-11T05:15:08.401Z,0.27
2023-02-11T05:17:34.865Z,0.21
2023-02-11T05:20:01.443Z,0.23
2023-02-11T05:22:27.958Z,0.26
2023-02-11T05:24:54.459Z,0.29
2023-02-11T05:27:20.988Z,0.33
2023-02-11T05:29:47.475Z,0.36
2023-02-11T05:32:14.014Z,0.37
2023-02-11T05:34:40.542Z,0.42
2023-02-11T05:37:07.082Z,0.46
2023-02-11T05:39:33.687Z,0.48
2023-02-11T05:42:00.182Z,0.54
2023-02-11T05:44:26.776Z,0.54
2023-02-11T05:46:53.264Z,0.58
2023-02-11T05:49:19.773Z,0.59
2023-02-11T05:51:46.420Z,0.60
2023-02-11T05:54:13.221Z,0.59
2023-02-11T05:56:39.771Z,0.63
2023-02-11T05:59:06.386Z,0.62
2023-02-11T06:01:32.858Z,0.66
2023-02-11T06:03:59.451Z,0.64
2023-02-11T06:06:26.309Z,0.68
2023-02-11T06:08:52.803Z,0.71
2023-02-11T06:11:20.348Z,0.73
2023-02-11T06:13:46.914Z,0.80
2023-02-11T06:16:13.530Z,0.80
2023-02-11T06:18:40.097Z,0.86
2023-02-11T06:21:11.181Z,0.90
2023-02-11T06:23:38.334Z,0.90
2023-02-11T06:26:06.944Z,0.86
2023-02-11T06:28:33.924Z,0.97
2023-02-11T06:31:06.929Z,0.96
2023-02-11T06:33:35.230Z,1.00
2023-02-11T06:36:02.126Z,1.01
2023-02-11T06:38:28.692Z,1.05
2023-02-11T06:40:55.216Z,1.07
2023-02-11T06:43:21.922Z,1.09
2023-02-11T06:45:55.344Z,1.12
2023-02-11T06:48:23.182Z,1.14
2023-02-11T06:50:49.695Z,1.12
2023-02-11T06:53:16.214Z,1.18
2023-02-11T06:55:42.776Z,1.24
2023-02-11T06:58:09.296Z,1.24
2023-02-11T07:00:36.938Z,1.25
2023-02-11T07:03:03.840Z,1.28
2023-02-11T07:05:30.392Z,1.31
2023-02-11T07:07:57.442Z,1.35
2023-02-11T07:10:23.951Z,1.35
2023-02-11T07:12:50.475Z,1.36
2023-02-11T07:15:17.007Z,1.38
2023-02-11T07:17:43.520Z,1.38
2023-02-11T07:20:12.489Z,1.45
2023-02-11T07:22:39.002Z,1.46
2023-02-11T07:25:05.940Z,1.48
2023-02-11T07:27:32.552Z,1.52
2023-02-11T07:29:59.145Z,1.58
2023-02-11T07:32:25.641Z,1.59
2023-02-11T07:34:52.171Z,1.61
2023-02-11T07:37:19.974Z,1.65
2023-02-11T07:39:46.473Z,1.71
2023-02-11T07:42:13.068Z,1.77
2023-02-11T07:44:39.571Z,1.87
2023-02-11T07:47:06.227Z,1.96
2023-02-11T07:49:32.813Z,1.99
2023-02-11T07:51:59.420Z,2.08
2023-02-11T07:54:25.917Z,2.09
2023-02-11T07:56:52.466Z,2.11
2023-02-11T07:59:18.945Z,2.16
2023-02-11T08:01:45.648Z,2.22
2023-02-11T08:04:12.178Z,2.30
2023-02-11T08:06:42.380Z,2.35
2023-02-11T08:09:14.159Z,2.38
2023-02-11T08:11:40.672Z,2.44
2023-02-11T08:14:07.176Z,2.58
2023-02-11T08:16:36.853Z,2.60
2023-02-11T08:19:13.698Z,2.72
2023-02-11T08:21:40.695Z,2.79
2023-02-11T08:24:07.783Z,2.90
2023-02-11T08:26:35.398Z,2.99
2023-02-11T08:29:08.315Z,2.97
2023-02-11T08:31:38.587Z,3.08
2023-02-11T08:34:05.866Z,3.02
2023-02-11T08:36:36.923Z,3.13
2023-02-11T08:39:18.760Z,3.19
2023-02-11T08:41:48.920Z,3.11
2023-02-11T08:44:15.932Z,3.21
2023-02-11T08:46:42.429Z,3.16
2023-02-11T08:49:08.986Z,3.22
2023-02-11T08:51:35.557Z,3.29
2023-02-11T08:54:02.129Z,3.18
2023-02-11T08:56:31.522Z,3.32
2023-02-11T08:58:58.126Z,3.34
2023-02-11T09:01:27.610Z,3.37
2023-02-11T09:03:54.310Z,3.41
2023-02-11T09:06:22.569Z,3.56
2023-02-11T09:08:53.490Z,3.62
2023-02-11T09:11:22.440Z,3.60
2023-02-11T09:13:48.987Z,3.80
2023-02-11T09:16:21.377Z,3.81
2023-02-11T09:18:49.013Z,3.78
2023-02-11T09:21:17.000Z,3.92
2023-02-11T09:23:44.945Z,3.92
2023-02-11T09:26:15.505Z,3.93
2023-02-11T09:28:42.198Z,4.03
2023-02-11T09:31:11.480Z,4.14
2023-02-11T09:33:39.526Z,4.21
2023-02-11T09:36:06.655Z,4.30
2023-02-11T09:38:33.509Z,4.33
2023-02-11T09:41:04.103Z,4.33
2023-02-11T09:43:44.594Z,4.35
2023-02-11T09:46:16.296Z,4.40
2023-02-11T09:48:45.455Z,4.59
2023-02-11T09:51:38.095Z,4.54
2023-02-11T09:54:13.236Z,4.59
2023-02-11T09:56:39.887Z,4.58
2023-02-11T09:59:13.869Z,4.65
2023-02-11T10:01:48.386Z,4.59
2023-02-11T10:04:45.890Z,4.49
2023-02-11T10:07:25.633Z,4.54
2023-02-11T10:10:35.923Z,4.66
2023-02-11T10:13:19.904Z,4.62
2023-02-11T10:16:07.706Z,4.59
2023-02-11T10:18:52.142Z,4.65
2023-02-11T10:21:50.763Z,4.66
2023-02-11T10:24:18.073Z,4.62
2023-02-11T10:26:45.986Z,4.68
2023-02-11T10:29:27.154Z,4.73
2023-02-11T10:31:56.507Z,4.75
2023-02-11T10:34:24.453Z,4.80
2023-02-11T10:36:50.966Z,4.80
2023-02-11T10:39:22.932Z,4.71
2023-02-11T10:41:57.225Z,4.63
2023-02-11T10:44:32.181Z,4.71
2023-02-11T10:47:05.275Z,4.72
2023-02-11T10:49:38.976Z,4.72
2023-02-11T10:52:31.833Z,4.82
2023-02-11T10:55:06.169Z,4.75
2023-02-11T10:57:32.630Z,4.74
2023-02-11T11:00:03.763Z,4.66
2023-02-11T11:02:34.636Z,4.72
2023-02-11T11:05:14.505Z,4.68
2023-02-11T11:07:52.562Z,4.63
2023-02-11T11:11:07.329Z,4.66
2023-02-11T11:13:36.601Z,4.73
2023-02-11T11:16:11.997Z,4.80
2023-02-11T11:18:43.952Z,4.75
2023-02-11T11:21:24.453Z,4.75
2023-02-11T11:24:02.420Z,4.77
2023-02-11T11:26:41.680Z,4.82
2023-02-11T11:29:13.870Z,4.95
2023-02-11T11:32:01.831Z,5.08
2023-02-11T11:37:23.104Z,5.19
2023-02-11T11:40:01.590Z,5.27
2023-02-11T11:42:33.260Z,5.34
2023-02-11T11:45:02.145Z,5.26
2023-02-11T11:47:56.051Z,5.29
2023-02-11T11:50:26.522Z,5.11
2023-02-11T11:53:00.399Z,5.12
2023-02-11T11:55:36.496Z,5.05
2023-02-11T11:58:04.412Z,5.12
2023-02-11T12:00:41.361Z,5.17
2023-02-11T12:03:27.412Z,5.18
2023-02-11T12:06:09.732Z,5.04
2023-02-11T12:08:56.273Z,5.10
2023-02-11T12:11:28.643Z,4.97
2023-02-11T12:14:28.948Z,5.07
2023-02-11T12:17:20.334Z,4.98
2023-02-11T12:20:05.512Z,5.08
2023-02-11T12:22:46.225Z,5.06
2023-02-11T12:25:29.684Z,5.04
2023-02-11T12:28:27.027Z,4.99
2023-02-11T12:31:13.330Z,5.03
2023-02-11T12:34:02.170Z,5.19
2023-02-11T12:36:37.577Z,5.29
2023-02-11T12:39:23.869Z,5.01
2023-02-11T12:42:31.136Z,4.93
2023-02-11T12:45:09.545Z,4.85
2023-02-11T12:48:00.806Z,4.90
2023-02-11T12:50:56.449Z,4.95
2023-02-11T12:53:53.886Z,4.94
2023-02-11T12:56:36.023Z,4.93
2023-02-11T12:59:08.083Z,4.88
2023-02-11T13:01:39.225Z,4.92
2023-02-11T13:04:19.936Z,5.04
2023-02-11T13:06:51.847Z,5.03
2023-02-11T13:09:24.618Z,4.98
2023-02-11T13:12:22.287Z,5.01
2023-02-11T13:14:52.402Z,5.00
2023-02-11T13:17:50.473Z,5.00
2023-02-11T13:20:40.569Z,4.99
2023-02-11T13:23:37.358Z,5.05
2023-02-11T13:26:39.282Z,5.04
2023-02-11T13:29:14.917Z,5.00
2023-02-11T13:31:41.624Z,5.05
2023-02-11T13:34:43.714Z,4.94
2023-02-11T13:37:31.131Z,4.91
2023-02-11T13:40:04.933Z,4.96
2023-02-11T13:42:34.260Z,4.95
2023-02-11T13:45:01.377Z,4.91
2023-02-11T13:47:33.734Z,4.97
2023-02-11T13:50:02.753Z,5.00
2023-02-11T13:52:37.469Z,5.07
2023-02-11T13:55:22.502Z,4.96
2023-02-11T13:58:07.959Z,4.93
2023-02-11T14:00:34.399Z,4.87
2023-02-11T14:03:32.140Z,4.81
2023-02-11T14:06:29.637Z,4.84
2023-02-11T14:09:14.193Z,4.85
2023-02-11T14:11:43.492Z,4.84
2023-02-11T14:14:24.202Z,4.82
2023-02-11T14:17:00.130Z,4.79
2023-02-11T14:19:37.485Z,4.71
2023-02-11T14:22:06.166Z,4.69
2023-02-11T14:24:32.594Z,4.67
2023-02-11T14:27:26.107Z,4.67
2023-02-11T14:30:43.777Z,4.61
2023-02-11T14:33:24.176Z,4.66
2023-02-11T14:36:01.869Z,4.65
2023-02-11T14:38:37.507Z,4.63
2023-02-11T14:41:13.567Z,4.53
2023-02-11T14:43:50.840Z,4.52
2023-02-11T14:46:18.998Z,4.39
2023-02-11T14:48:52.173Z,4.38
2023-02-11T14:51:36.508Z,4.25
2023-02-11T14:54:15.276Z,4.19
2023-02-11T14:56:42.438Z,4.16
2023-02-11T14:59:21.460Z,4.12
2023-02-11T15:01:54.707Z,4.11
2023-02-11T15:04:25.978Z,3.94
2023-02-11T15:06:54.162Z,3.97
2023-02-11T15:09:28.127Z,3.98
2023-02-11T15:11:57.872Z,4.00
2023-02-11T15:14:27.323Z,3.92
2023-02-11T15:16:57.158Z,3.93
2023-02-11T15:19:29.703Z,3.88
2023-02-11T15:21:58.287Z,3.82
2023-02-11T15:24:28.434Z,3.77
2023-02-11T15:27:00.462Z,3.79
2023-02-11T15:29:34.502Z,3.79
2023-02-11T15:32:13.870Z,3.78
2023-02-11T15:34:40.705Z,3.79
2023-02-11T15:37:08.126Z,3.75
2023-02-11T15:39:43.303Z,3.79
2023-02-11T15:42:52.187Z,3.75
2023-02-11T15:45:30.963Z,3.76
2023-02-11T15:48:12.910Z,3.77
2023-02-11T15:50:41.384Z,3.69
2023-02-11T15:54:22.382Z,3.72
2023-02-11T15:56:51.596Z,3.67
2023-02-11T15:59:36.045Z,3.71
2023-02-11T16:02:15.474Z,3.75
2023-02-11T16:04:51.227Z,3.75
2023-02-11T16:07:41.995Z,3.80
2023-02-11T16:10:22.522Z,3.78
2023-02-11T16:13:12.355Z,3.80
2023-02-11T16:15:53.849Z,3.79
2023-02-11T16:18:37.752Z,3.81
2023-02-11T16:21:06.705Z,3.86
2023-02-11T16:23:37.771Z,3.83
2023-02-11T16:26:13.075Z,3.79
2023-02-11T16:28:40.078Z,3.84
2023-02-11T16:31:09.759Z,3.87
2023-02-11T16:33:36.394Z,3.92
2023-02-11T16:36:11.689Z,3.88
2023-02-11T16:38:38.368Z,3.91
2023-02-11T16:41:05.251Z,3.86
2023-02-11T16:43:32.381Z,3.95
2023-02-11T16:45:59.076Z,3.90
2023-02-11T16:48:25.812Z,3.95
2023-02-11T16:50:53.669Z,4.03
2023-02-11T16:53:23.473Z,4.02
2023-02-11T16:55:51.041Z,4.03
2023-02-11T16:58:17.759Z,3.95
2023-02-11T17:00:46.529Z,4.05
2023-02-11T17:03:18.207Z,3.99
2023-02-11T17:05:55.397Z,4.03
2023-02-11T17:08:23.628Z,3.97
2023-02-11T17:10:50.495Z,4.02
2023-02-11T17:13:17.238Z,4.07
2023-02-11T17:15:43.884Z,4.06
2023-02-11T17:18:14.508Z,4.05
2023-02-11T17:20:41.695Z,4.07
2023-02-11T17:23:08.523Z,4.10
2023-02-11T17:25:37.344Z,4.02
2023-02-11T17:28:08.513Z,3.99
2023-02-11T17:30:35.877Z,4.10
2023-02-11T17:33:02.655Z,4.10
2023-02-11T17:35:29.383Z,4.06
2023-02-11T17:37:56.113Z,4.11
2023-02-11T17:40:22.644Z,4.04
2023-02-11T17:42:50.262Z,4.01
2023-02-11T17:45:16.930Z,3.98
2023-02-11T17:47:43.504Z,4.00
2023-02-11T17:50:10.462Z,4.03
2023-02-11T17:52:37.885Z,3.96
2023-02-11T17:55:05.723Z,3.98
2023-02-11T17:57:32.610Z,3.94
2023-02-11T17:59:59.109Z,3.97
2023-02-11T18:02:25.759Z,4.03
2023-02-11T18:04:53.444Z,4.04
2023-02-11T18:07:20.527Z,3.98
2023-02-11T18:09:47.056Z,4.04
2023-02-11T18:12:13.627Z,4.03
2023-02-11T18:14:41.141Z,4.03
2023-02-11T18:17:07.878Z,4.01
2023-02-11T18:19:36.734Z,4.03
2023-02-11T18:22:04.444Z,4.03
2023-02-11T18:24:31.322Z,4.08
2023-02-11T18:26:58.296Z,4.13
2023-02-11T18:29:25.291Z,3.97
2023-02-11T18:31:54.994Z,4.00
2023-02-11T18:34:21.580Z,4.00
2023-02-11T18:36:48.914Z,4.06
2023-02-11T18:39:16.154Z,4.07
2023-02-11T18:41:43.660Z,4.03
2023-02-11T18:44:12.097Z,4.06
2023-02-11T18:46:38.569Z,4.08
2023-02-11T18:49:05.064Z,4.09
2023-02-11T18:51:32.718Z,4.06
2023-02-11T18:54:01.420Z,4.13
2023-02-11T18:56:28.146Z,4.10
2023-02-11T18:58:56.583Z,4.06
2023-02-11T19:01:26.204Z,4.08
2023-02-11T19:03:54.863Z,4.09
2023-02-11T19:06:25.428Z,4.11
2023-02-11T19:08:59.205Z,4.13
2023-02-11T19:11:45.133Z,4.13
2023-02-11T19:14:12.986Z,4.09
2023-02-11T19:16:41.354Z,4.20
2023-02-11T19:19:08.543Z,4.11
2023-02-11T19:21:35.822Z,4.10
2023-02-11T19:24:07.760Z,4.14
2023-02-11T19:26:34.722Z,4.19
2023-02-11T19:29:02.035Z,4.18
2023-02-11T19:31:28.757Z,4.23
2023-02-11T19:33:55.912Z,4.09
2023-02-11T19:36:22.411Z,4.21
2023-02-11T19:38:49.118Z,4.12
2023-02-11T19:41:23.355Z,4.13
2023-02-11T19:43:52.923Z,4.17
2023-02-11T19:46:21.448Z,4.11
2023-02-11T19:48:49.482Z,4.16
2023-02-11T19:51:17.412Z,4.17
2023-02-11T19:53:45.302Z,4.16
2023-02-11T19:56:13.607Z,4.12
2023-02-11T19:58:40.976Z,4.21
2023-02-11T20:01:16.786Z,4.19
2023-02-11T20:03:43.618Z,4.23
2023-02-11T20:06:14.118Z,4.24
2023-02-11T20:08:41.431Z,4.19
2023-02-11T20:11:12.864Z,4.19
2023-02-11T20:13:39.442Z,4.27
2023-02-11T20:16:08.843Z,4.13
2023-02-11T20:18:37.136Z,4.15
2023-02-11T20:21:18.985Z,4.19
2023-02-11T20:23:46.676Z,4.21
2023-02-11T20:26:15.940Z,4.19
2023-02-11T20:28:42.873Z,4.14
2023-02-11T20:31:13.342Z,4.20
2023-02-11T20:33:42.057Z,4.23
2023-02-11T20:36:16.463Z,4.14
2023-02-11T20:38:43.800Z,4.26
2023-02-11T20:41:25.595Z,4.13
2023-02-11T20:43:54.850Z,4.23
2023-02-11T20:46:24.777Z,4.23
2023-02-11T20:48:52.177Z,4.21
2023-02-11T20:51:25.354Z,4.22
2023-02-11T20:53:52.443Z,4.20
2023-02-11T20:56:24.892Z,4.17
2023-02-11T20:58:53.511Z,4.23
2023-02-11T21:01:23.199Z,4.24
2023-02-11T21:03:51.300Z,4.25
2023-02-11T21:06:19.531Z,4.22
2023-02-11T21:08:46.089Z,4.24
2023-02-11T21:11:12.999Z,4.33
2023-02-11T21:13:41.231Z,4.40
2023-02-11T21:16:08.874Z,4.40
2023-02-11T21:18:35.570Z,4.35
2023-02-11T21:21:02.057Z,4.31
2023-02-11T21:23:29.226Z,4.29
2023-02-11T21:25:57.277Z,4.36
2023-02-11T21:28:28.347Z,4.35
2023-02-11T21:30:56.813Z,4.37
2023-02-11T21:33:25.068Z,4.35
2023-02-11T21:35:56.394Z,4.37
2023-02-11T21:38:23.192Z,4.39
2023-02-11T21:40:49.729Z,4.37
2023-02-11T21:43:16.394Z,4.36
2023-02-11T21:45:45.002Z,4.47
2023-02-11T21:48:12.503Z,4.53
2023-02-11T21:50:41.062Z,4.48
2023-02-11T21:53:08.594Z,4.43
2023-02-11T21:55:36.030Z,4.47
2023-02-11T21:58:03.124Z,4.49
2023-02-11T22:00:30.023Z,4.44
2023-02-11T22:02:56.614Z,4.45
2023-02-11T22:05:23.259Z,4.53
2023-02-11T22:07:49.909Z,4.45
2023-02-11T22:10:17.178Z,4.51
2023-02-11T22:12:43.767Z,4.46
2023-02-11T22:15:10.734Z,4.53
2023-02-11T22:17:37.472Z,4.55
2023-02-11T22:20:05.472Z,4.53
2023-02-11T22:22:31.969Z,4.55
2023-02-11T22:25:00.195Z,4.58
2023-02-11T22:27:26.813Z,4.54
2023-02-11T22:29:53.386Z,4.54
2023-02-11T22:32:19.850Z,4.58
2023-02-11T22:34:46.383Z,4.52
2023-02-11T22:37:12.901Z,4.51
2023-02-11T22:39:39.493Z,4.51
2023-02-11T22:42:05.998Z,4.56
2023-02-11T22:44:32.583Z,4.48
2023-02-11T22:46:59.109Z,4.43
2023-02-11T22:49:25.651Z,4.48
2023-02-11T22:51:52.184Z,4.53
2023-02-11T22:54:19.241Z,4.50
2023-02-11T22:56:49.531Z,4.46
2023-02-11T22:59:16.140Z,4.54
2023-02-11T23:01:43.389Z,4.60
2023-02-11T23:04:13.892Z,4.49
2023-02-11T23:06:40.528Z,4.52
2023-02-11T23:09:09.447Z,4.53
2023-02-11T23:11:36.195Z,4.58
2023-02-11T23:14:02.863Z,4.54
2023-02-11T23:16:34.145Z,4.62
2023-02-11T23:19:06.517Z,4.53
2023-02-11T23:21:35.187Z,4.48
2023-02-11T23:24:13.455Z,4.45
2023-02-11T23:26:41.216Z,4.48
2023-02-11T23:29:08.253Z,4.40
2023-02-11T23:31:38.102Z,4.40
2023-02-11T23:34:05.194Z,4.37
2023-02-11T23:36:31.915Z,4.48
2023-02-11T23:38:58.628Z,4.55
2023-02-11T23:41:25.283Z,4.52
2023-02-11T23:43:53.348Z,4.49
2023-02-11T23:46:22.109Z,4.56
2023-02-11T23:48:49.838Z,4.55
2023-02-11T23:51:16.729Z,4.52
2023-02-11T23:53:44.906Z,4.57
2023-02-11T23:56:15.755Z,4.58
2023-02-11T23:58:42.425Z,4.60
